sensor_id;sensor_type;location;lat;lon;timestamp;temperature;humidity
2749;DHT22;1382;52.142;11.618;2024-03-17T00:01:03;9.60;54.60
2749;DHT22;1382;52.142;11.618;2024-03-17T00:03:37;9.60;54.60
2749;DHT22;1382;52.142;11.618;2024-03-17T00:06:06;9.60;54.60
2749;DHT22;1382;52.142;11.618;2024-03-17T00:08:34;9.80;54.80
2749;DHT22;1382;52.142;11.618;2024-03-17T00:11:03;9.50;54.50
2749;DHT22;1382;52.142;11.618;2024-03-17T00:13:28;9.50;54.60
2749;DHT22;1382;52.142;11.618;2024-03-17T00:15:54;9.50;54.60
2749;DHT22;1382;52.142;11.618;2024-03-17T00:18:20;9.50;54.60
2749;DHT22;1382;52.142;11.618;2024-03-17T00:20:50;9.50;54.60
2749;DHT22;1382;52.142;11.618;2024-03-17T00:23:15;9.50;54.50
2749;DHT22;1382;52.142;11.618;2024-03-17T00:25:47;9.50;54.60
2749;DHT22;1382;52.142;11.618;2024-03-17T00:28:16;9.60;54.70
2749;DHT22;1382;52.142;11.618;2024-03-17T00:30:42;9.40;54.50
2749;DHT22;1382;52.142;11.618;2024-03-17T00:33:10;9.40;54.50
2749;DHT22;1382;52.142;11.618;2024-03-17T00:35:39;9.40;54.40
2749;DHT22;1382;52.142;11.618;2024-03-17T00:38:13;9.40;54.50
2749;DHT22;1382;52.142;11.618;2024-03-17T00:40:47;9.40;54.40
2749;DHT22;1382;52.142;11.618;2024-03-17T00:43:13;9.40;54.50
2749;DHT22;1382;52.142;11.618;2024-03-17T00:45:42;9.30;54.40
2749;DHT22;1382;52.142;11.618;2024-03-17T00:48:07;9.30;54.30
2749;DHT22;1382;52.142;11.618;2024-03-17T00:50:36;9.30;54.40
2749;DHT22;1382;52.142;11.618;2024-03-17T00:53:02;9.30;54.40
2749;DHT22;1382;52.142;11.618;2024-03-17T00:55:29;9.20;54.30
2749;DHT22;1382;52.142;11.618;2024-03-17T00:57:55;9.20;54.30
2749;DHT22;1382;52.142;11.618;2024-03-17T01:00:21;9.20;54.40
2749;DHT22;1382;52.142;11.618;2024-03-17T01:02:46;9.10;54.20
2749;DHT22;1382;52.142;11.618;2024-03-17T01:05:12;9.20;54.30
2749;DHT22;1382;52.142;11.618;2024-03-17T01:07:38;9.20;54.20
2749;DHT22;1382;52.142;11.618;2024-03-17T01:10:06;9.10;54.10
2749;DHT22;1382;52.142;11.618;2024-03-17T01:12:43;9.10;54.10
2749;DHT22;1382;52.142;11.618;2024-03-17T01:15:10;9.20;54.30
2749;DHT22;1382;52.142;11.618;2024-03-17T01:17:54;9.00;54.30
2749;DHT22;1382;52.142;11.618;2024-03-17T01:20:26;9.10;54.20
2749;DHT22;1382;52.142;11.618;2024-03-17T01:22:52;9.00;54.40
2749;DHT22;1382;52.142;11.618;2024-03-17T01:25:18;9.00;54.40
2749;DHT22;1382;52.142;11.618;2024-03-17T01:27:56;8.90;54.20
2749;DHT22;1382;52.142;11.618;2024-03-17T01:30:24;9.00;54.20
2749;DHT22;1382;52.142;11.618;2024-03-17T01:32:51;8.90;54.20
2749;DHT22;1382;52.142;11.618;2024-03-17T01:35:35;8.90;54.20
2749;DHT22;1382;52.142;11.618;2024-03-17T01:38:00;8.90;54.30
2749;DHT22;1382;52.142;11.618;2024-03-17T01:40:26;9.10;54.40
2749;DHT22;1382;52.142;11.618;2024-03-17T01:42:53;8.90;54.30
2749;DHT22;1382;52.142;11.618;2024-03-17T01:45:28;8.80;54.10
2749;DHT22;1382;52.142;11.618;2024-03-17T01:47:54;8.80;54.10
2749;DHT22;1382;52.142;11.618;2024-03-17T01:50:32;8.80;54.10
2749;DHT22;1382;52.142;11.618;2024-03-17T01:53:01;9.00;54.20
2749;DHT22;1382;52.142;11.618;2024-03-17T01:55:30;8.80;54.20
2749;DHT22;1382;52.142;11.618;2024-03-17T01:58:06;8.70;54.10
2749;DHT22;1382;52.142;11.618;2024-03-17T02:00:32;8.70;54.00
2749;DHT22;1382;52.142;11.618;2024-03-17T02:03:01;8.70;54.10
2749;DHT22;1382;52.142;11.618;2024-03-17T02:05:51;8.70;54.00
2749;DHT22;1382;52.142;11.618;2024-03-17T02:08:19;8.80;54.10
2749;DHT22;1382;52.142;11.618;2024-03-17T02:10:54;8.60;54.10
2749;DHT22;1382;52.142;11.618;2024-03-17T02:13:22;8.60;54.10
2749;DHT22;1382;52.142;11.618;2024-03-17T02:15:48;8.60;54.00
2749;DHT22;1382;52.142;11.618;2024-03-17T02:18:14;8.50;54.00
2749;DHT22;1382;52.142;11.618;2024-03-17T02:20:40;8.50;54.00
2749;DHT22;1382;52.142;11.618;2024-03-17T02:23:10;8.50;54.00
2749;DHT22;1382;52.142;11.618;2024-03-17T02:25:39;8.50;54.00
2749;DHT22;1382;52.142;11.618;2024-03-17T02:28:04;8.50;54.00
2749;DHT22;1382;52.142;11.618;2024-03-17T02:30:31;8.40;54.00
2749;DHT22;1382;52.142;11.618;2024-03-17T02:32:57;8.40;54.00
2749;DHT22;1382;52.142;11.618;2024-03-17T02:35:23;8.30;53.90
2749;DHT22;1382;52.142;11.618;2024-03-17T02:37:49;8.30;53.90
2749;DHT22;1382;52.142;11.618;2024-03-17T02:40:16;8.30;54.00
2749;DHT22;1382;52.142;11.618;2024-03-17T02:42:42;8.30;54.00
2749;DHT22;1382;52.142;11.618;2024-03-17T02:45:11;8.30;54.00
2749;DHT22;1382;52.142;11.618;2024-03-17T02:47:43;8.40;54.10
2749;DHT22;1382;52.142;11.618;2024-03-17T02:50:11;8.20;54.00
2749;DHT22;1382;52.142;11.618;2024-03-17T02:52:40;8.40;54.20
2749;DHT22;1382;52.142;11.618;2024-03-17T02:55:07;8.10;54.00
2749;DHT22;1382;52.142;11.618;2024-03-17T02:57:40;8.10;54.00
2749;DHT22;1382;52.142;11.618;2024-03-17T03:00:08;8.20;54.10
2749;DHT22;1382;52.142;11.618;2024-03-17T03:02:34;8.10;54.70
2749;DHT22;1382;52.142;11.618;2024-03-17T03:05:00;8.10;54.00
2749;DHT22;1382;52.142;11.618;2024-03-17T03:07:25;8.00;54.70
2749;DHT22;1382;52.142;11.618;2024-03-17T03:09:51;8.00;54.00
2749;DHT22;1382;52.142;11.618;2024-03-17T03:12:17;8.00;54.00
2749;DHT22;1382;52.142;11.618;2024-03-17T03:14:44;8.00;54.10
2749;DHT22;1382;52.142;11.618;2024-03-17T03:17:16;7.90;54.00
2749;DHT22;1382;52.142;11.618;2024-03-17T03:19:42;8.00;54.10
2749;DHT22;1382;52.142;11.618;2024-03-17T03:22:11;7.90;54.10
2749;DHT22;1382;52.142;11.618;2024-03-17T03:24:37;8.10;54.30
2749;DHT22;1382;52.142;11.618;2024-03-17T03:27:02;7.90;54.10
2749;DHT22;1382;52.142;11.618;2024-03-17T03:29:28;7.90;54.10
2749;DHT22;1382;52.142;11.618;2024-03-17T03:31:57;7.90;54.20
2749;DHT22;1382;52.142;11.618;2024-03-17T03:34:32;7.90;54.20
2749;DHT22;1382;52.142;11.618;2024-03-17T03:36:58;7.80;54.20
2749;DHT22;1382;52.142;11.618;2024-03-17T03:39:24;7.80;54.20
2749;DHT22;1382;52.142;11.618;2024-03-17T03:41:50;7.80;54.20
2749;DHT22;1382;52.142;11.618;2024-03-17T03:44:21;7.80;54.30
2749;DHT22;1382;52.142;11.618;2024-03-17T03:46:47;7.80;54.20
2749;DHT22;1382;52.142;11.618;2024-03-17T03:49:14;7.80;54.20
2749;DHT22;1382;52.142;11.618;2024-03-17T03:51:40;7.80;54.30
2749;DHT22;1382;52.142;11.618;2024-03-17T03:54:06;7.70;54.10
2749;DHT22;1382;52.142;11.618;2024-03-17T03:56:32;8.00;54.30
2749;DHT22;1382;52.142;11.618;2024-03-17T03:58:57;7.70;54.10
2749;DHT22;1382;52.142;11.618;2024-03-17T04:01:25;7.70;54.00
2749;DHT22;1382;52.142;11.618;2024-03-17T04:03:53;7.90;54.20
2749;DHT22;1382;52.142;11.618;2024-03-17T04:06:36;7.70;54.00
2749;DHT22;1382;52.142;11.618;2024-03-17T04:09:02;7.80;54.10
2749;DHT22;1382;52.142;11.618;2024-03-17T04:11:28;7.60;54.10
2749;DHT22;1382;52.142;11.618;2024-03-17T04:13:53;7.60;54.00
2749;DHT22;1382;52.142;11.618;2024-03-17T04:16:21;7.60;54.00
2749;DHT22;1382;52.142;11.618;2024-03-17T04:18:47;7.60;54.00
2749;DHT22;1382;52.142;11.618;2024-03-17T04:21:13;7.60;54.10
2749;DHT22;1382;52.142;11.618;2024-03-17T04:23:40;7.50;54.00
2749;DHT22;1382;52.142;11.618;2024-03-17T04:26:06;7.50;54.00
2749;DHT22;1382;52.142;11.618;2024-03-17T04:28:32;7.50;54.10
2749;DHT22;1382;52.142;11.618;2024-03-17T04:31:06;7.50;54.10
2749;DHT22;1382;52.142;11.618;2024-03-17T04:33:46;7.50;54.20
2749;DHT22;1382;52.142;11.618;2024-03-17T04:36:12;7.40;54.20
2749;DHT22;1382;52.142;11.618;2024-03-17T04:39:03;7.40;54.30
2749;DHT22;1382;52.142;11.618;2024-03-17T04:42:03;7.50;54.30
2749;DHT22;1382;52.142;11.618;2024-03-17T04:44:30;7.40;54.40
2749;DHT22;1382;52.142;11.618;2024-03-17T04:46:59;7.40;54.40
2749;DHT22;1382;52.142;11.618;2024-03-17T04:49:28;7.40;54.40
2749;DHT22;1382;52.142;11.618;2024-03-17T04:51:54;7.50;54.40
2749;DHT22;1382;52.142;11.618;2024-03-17T04:54:27;7.40;54.40
2749;DHT22;1382;52.142;11.618;2024-03-17T04:57:11;7.40;54.40
2749;DHT22;1382;52.142;11.618;2024-03-17T04:59:36;7.40;54.40
2749;DHT22;1382;52.142;11.618;2024-03-17T05:02:03;7.40;54.40
2749;DHT22;1382;52.142;11.618;2024-03-17T05:04:32;7.40;54.50
2749;DHT22;1382;52.142;11.618;2024-03-17T05:06:57;7.30;54.40
2749;DHT22;1382;52.142;11.618;2024-03-17T05:09:32;7.30;54.50
2749;DHT22;1382;52.142;11.618;2024-03-17T05:11:58;7.40;54.60
2749;DHT22;1382;52.142;11.618;2024-03-17T05:14:27;7.30;54.50
2749;DHT22;1382;52.142;11.618;2024-03-17T05:16:56;7.40;54.50
2749;DHT22;1382;52.142;11.618;2024-03-17T05:19:24;7.40;54.50
2749;DHT22;1382;52.142;11.618;2024-03-17T05:21:53;7.40;54.60
2749;DHT22;1382;52.142;11.618;2024-03-17T05:24:22;7.40;54.60
2749;DHT22;1382;52.142;11.618;2024-03-17T05:26:49;7.40;54.70
2749;DHT22;1382;52.142;11.618;2024-03-17T05:29:21;7.10;54.60
2749;DHT22;1382;52.142;11.618;2024-03-17T05:31:53;7.40;54.80
2749;DHT22;1382;52.142;11.618;2024-03-17T05:34:19;7.30;54.90
2749;DHT22;1382;52.142;11.618;2024-03-17T05:36:45;7.30;54.90
2749;DHT22;1382;52.142;11.618;2024-03-17T05:39:14;7.50;55.00
2749;DHT22;1382;52.142;11.618;2024-03-17T05:41:46;7.30;55.00
2749;DHT22;1382;52.142;11.618;2024-03-17T05:44:13;7.50;55.00
2749;DHT22;1382;52.142;11.618;2024-03-17T05:46:46;7.40;54.90
2749;DHT22;1382;52.142;11.618;2024-03-17T05:49:33;7.20;54.70
2749;DHT22;1382;52.142;11.618;2024-03-17T05:51:58;7.40;54.70
2749;DHT22;1382;52.142;11.618;2024-03-17T05:54:26;7.40;54.80
2749;DHT22;1382;52.142;11.618;2024-03-17T05:57:05;7.40;54.80
2749;DHT22;1382;52.142;11.618;2024-03-17T05:59:32;7.40;54.80
2749;DHT22;1382;52.142;11.618;2024-03-17T06:01:58;7.50;54.80
2749;DHT22;1382;52.142;11.618;2024-03-17T06:04:23;7.20;54.60
2749;DHT22;1382;52.142;11.618;2024-03-17T06:06:49;7.40;54.80
2749;DHT22;1382;52.142;11.618;2024-03-17T06:09:48;7.40;54.80
2749;DHT22;1382;52.142;11.618;2024-03-17T06:12:14;7.40;54.70
2749;DHT22;1382;52.142;11.618;2024-03-17T06:14:51;7.40;55.00
2749;DHT22;1382;52.142;11.618;2024-03-17T06:17:26;7.40;55.00
2749;DHT22;1382;52.142;11.618;2024-03-17T06:19:53;7.40;55.00
2749;DHT22;1382;52.142;11.618;2024-03-17T06:25:17;7.50;55.50
2749;DHT22;1382;52.142;11.618;2024-03-17T06:28:01;7.50;55.50
2749;DHT22;1382;52.142;11.618;2024-03-17T06:30:28;7.30;55.60
2749;DHT22;1382;52.142;11.618;2024-03-17T06:32:59;7.50;55.70
2749;DHT22;1382;52.142;11.618;2024-03-17T06:39:00;7.60;55.60
2749;DHT22;1382;52.142;11.618;2024-03-17T06:45:09;7.60;56.00
2749;DHT22;1382;52.142;11.618;2024-03-17T06:56:55;8.00;56.90
2749;DHT22;1382;52.142;11.618;2024-03-17T06:59:34;7.90;56.70
2749;DHT22;1382;52.142;11.618;2024-03-17T07:02:01;7.80;56.60
2749;DHT22;1382;52.142;11.618;2024-03-17T07:04:29;8.00;56.50
2749;DHT22;1382;52.142;11.618;2024-03-17T07:07:16;8.00;56.70
2749;DHT22;1382;52.142;11.618;2024-03-17T07:09:56;8.30;57.20
2749;DHT22;1382;52.142;11.618;2024-03-17T07:12:28;8.10;56.90
2749;DHT22;1382;52.142;11.618;2024-03-17T07:15:01;8.40;57.30
2749;DHT22;1382;52.142;11.618;2024-03-17T07:17:35;8.30;57.30
2749;DHT22;1382;52.142;11.618;2024-03-17T07:20:01;8.40;57.60
2749;DHT22;1382;52.142;11.618;2024-03-17T07:22:36;8.40;57.30
2749;DHT22;1382;52.142;11.618;2024-03-17T07:25:14;8.50;57.50
2749;DHT22;1382;52.142;11.618;2024-03-17T07:27:40;8.60;57.60
2749;DHT22;1382;52.142;11.618;2024-03-17T07:30:07;8.60;57.20
2749;DHT22;1382;52.142;11.618;2024-03-17T07:32:39;8.70;57.30
2749;DHT22;1382;52.142;11.618;2024-03-17T07:35:10;9.00;57.70
2749;DHT22;1382;52.142;11.618;2024-03-17T07:37:36;8.90;57.30
2749;DHT22;1382;52.142;11.618;2024-03-17T07:40:04;9.00;57.20
2749;DHT22;1382;52.142;11.618;2024-03-17T07:42:40;9.00;57.40
2749;DHT22;1382;52.142;11.618;2024-03-17T07:45:10;9.10;57.40
2749;DHT22;1382;52.142;11.618;2024-03-17T07:48:13;9.00;57.00
2749;DHT22;1382;52.142;11.618;2024-03-17T07:51:07;9.30;57.20
2749;DHT22;1382;52.142;11.618;2024-03-17T07:57:01;9.50;56.80
2749;DHT22;1382;52.142;11.618;2024-03-17T08:13:03;9.70;56.10
2749;DHT22;1382;52.142;11.618;2024-03-17T08:15:34;9.90;55.90
2749;DHT22;1382;52.142;11.618;2024-03-17T08:21:34;10.10;55.60
2749;DHT22;1382;52.142;11.618;2024-03-17T08:24:30;10.30;54.70
2749;DHT22;1382;52.142;11.618;2024-03-17T08:28:05;10.40;55.00
2749;DHT22;1382;52.142;11.618;2024-03-17T08:30:21;10.60;54.80
2749;DHT22;1382;52.142;11.618;2024-03-17T08:37:20;10.50;54.30
2749;DHT22;1382;52.142;11.618;2024-03-17T08:43:59;10.90;54.30
2749;DHT22;1382;52.142;11.618;2024-03-17T08:47:09;11.00;54.40
2749;DHT22;1382;52.142;11.618;2024-03-17T08:58:23;11.40;53.90
2749;DHT22;1382;52.142;11.618;2024-03-17T09:00:49;11.50;53.90
2749;DHT22;1382;52.142;11.618;2024-03-17T09:03:15;11.60;53.90
2749;DHT22;1382;52.142;11.618;2024-03-17T09:05:42;11.70;53.80
2749;DHT22;1382;52.142;11.618;2024-03-17T09:08:15;11.80;53.60
2749;DHT22;1382;52.142;11.618;2024-03-17T09:10:41;12.00;53.50
2749;DHT22;1382;52.142;11.618;2024-03-17T09:13:12;12.10;53.30
2749;DHT22;1382;52.142;11.618;2024-03-17T09:15:40;12.20;53.50
2749;DHT22;1382;52.142;11.618;2024-03-17T09:18:05;12.30;53.80
2749;DHT22;1382;52.142;11.618;2024-03-17T09:20:32;12.40;53.10
2749;DHT22;1382;52.142;11.618;2024-03-17T09:22:58;12.50;52.60
2749;DHT22;1382;52.142;11.618;2024-03-17T09:25:23;12.60;53.40
2749;DHT22;1382;52.142;11.618;2024-03-17T09:27:49;12.80;53.10
2749;DHT22;1382;52.142;11.618;2024-03-17T09:30:15;12.90;52.20
2749;DHT22;1382;52.142;11.618;2024-03-17T09:32:42;13.00;51.40
2749;DHT22;1382;52.142;11.618;2024-03-17T09:35:08;13.10;50.80
2749;DHT22;1382;52.142;11.618;2024-03-17T09:37:34;13.20;50.30
2749;DHT22;1382;52.142;11.618;2024-03-17T09:40:00;13.30;50.30
2749;DHT22;1382;52.142;11.618;2024-03-17T09:42:26;13.40;50.40
2749;DHT22;1382;52.142;11.618;2024-03-17T09:44:53;13.40;50.70
2749;DHT22;1382;52.142;11.618;2024-03-17T09:47:20;13.50;50.50
2749;DHT22;1382;52.142;11.618;2024-03-17T09:49:48;13.60;50.00
2749;DHT22;1382;52.142;11.618;2024-03-17T09:52:19;13.60;49.20
2749;DHT22;1382;52.142;11.618;2024-03-17T09:54:46;13.70;50.80
2749;DHT22;1382;52.142;11.618;2024-03-17T09:57:16;13.70;49.90
2749;DHT22;1382;52.142;11.618;2024-03-17T09:59:42;13.80;49.90
2749;DHT22;1382;52.142;11.618;2024-03-17T10:02:16;13.80;50.20
2749;DHT22;1382;52.142;11.618;2024-03-17T10:04:43;14.00;48.50
2749;DHT22;1382;52.142;11.618;2024-03-17T10:07:10;14.00;48.90
2749;DHT22;1382;52.142;11.618;2024-03-17T10:09:36;14.10;49.90
2749;DHT22;1382;52.142;11.618;2024-03-17T10:12:02;14.10;48.00
2749;DHT22;1382;52.142;11.618;2024-03-17T10:14:28;14.10;45.50
2749;DHT22;1382;52.142;11.618;2024-03-17T10:16:54;14.10;45.90
2749;DHT22;1382;52.142;11.618;2024-03-17T10:19:22;14.20;47.80
2749;DHT22;1382;52.142;11.618;2024-03-17T10:21:48;14.20;49.20
2749;DHT22;1382;52.142;11.618;2024-03-17T10:24:20;14.30;50.70
2749;DHT22;1382;52.142;11.618;2024-03-17T10:26:48;14.30;48.30
2749;DHT22;1382;52.142;11.618;2024-03-17T10:29:21;14.30;48.20
2749;DHT22;1382;52.142;11.618;2024-03-17T10:31:47;14.40;46.20
2749;DHT22;1382;52.142;11.618;2024-03-17T10:34:15;14.40;46.20
2749;DHT22;1382;52.142;11.618;2024-03-17T10:36:41;14.40;46.10
2749;DHT22;1382;52.142;11.618;2024-03-17T10:39:22;14.50;44.80
2749;DHT22;1382;52.142;11.618;2024-03-17T10:41:48;14.40;45.30
2749;DHT22;1382;52.142;11.618;2024-03-17T10:44:14;14.40;45.30
2749;DHT22;1382;52.142;11.618;2024-03-17T10:46:41;14.50;46.60
2749;DHT22;1382;52.142;11.618;2024-03-17T10:49:09;14.50;46.00
2749;DHT22;1382;52.142;11.618;2024-03-17T10:51:37;14.50;44.00
2749;DHT22;1382;52.142;11.618;2024-03-17T10:54:04;14.50;45.30
2749;DHT22;1382;52.142;11.618;2024-03-17T10:56:32;14.70;46.90
2749;DHT22;1382;52.142;11.618;2024-03-17T10:59:00;14.60;45.00
2749;DHT22;1382;52.142;11.618;2024-03-17T11:01:28;14.70;45.00
2749;DHT22;1382;52.142;11.618;2024-03-17T11:03:54;14.80;45.20
2749;DHT22;1382;52.142;11.618;2024-03-17T11:06:20;14.80;46.10
2749;DHT22;1382;52.142;11.618;2024-03-17T11:08:47;14.90;44.90
2749;DHT22;1382;52.142;11.618;2024-03-17T11:11:13;14.90;45.60
2749;DHT22;1382;52.142;11.618;2024-03-17T11:13:40;15.00;45.90
2749;DHT22;1382;52.142;11.618;2024-03-17T11:16:25;15.10;47.00
2749;DHT22;1382;52.142;11.618;2024-03-17T11:18:51;15.30;45.20
2749;DHT22;1382;52.142;11.618;2024-03-17T11:21:22;15.40;45.70
2749;DHT22;1382;52.142;11.618;2024-03-17T11:23:59;15.50;45.00
2749;DHT22;1382;52.142;11.618;2024-03-17T11:26:30;15.60;44.80
2749;DHT22;1382;52.142;11.618;2024-03-17T11:28:57;15.70;47.40
2749;DHT22;1382;52.142;11.618;2024-03-17T11:31:47;15.80;43.70
2749;DHT22;1382;52.142;11.618;2024-03-17T11:34:36;16.00;42.20
2749;DHT22;1382;52.142;11.618;2024-03-17T11:37:03;16.00;43.10
2749;DHT22;1382;52.142;11.618;2024-03-17T11:39:53;16.00;45.30
2749;DHT22;1382;52.142;11.618;2024-03-17T11:42:28;16.20;46.70
2749;DHT22;1382;52.142;11.618;2024-03-17T11:45:04;16.30;47.00
2749;DHT22;1382;52.142;11.618;2024-03-17T11:47:52;16.30;44.20
2749;DHT22;1382;52.142;11.618;2024-03-17T11:51:37;16.50;45.50
2749;DHT22;1382;52.142;11.618;2024-03-17T12:01:54;16.50;46.60
2749;DHT22;1382;52.142;11.618;2024-03-17T12:21:53;17.40;45.10
2749;DHT22;1382;52.142;11.618;2024-03-17T13:12:22;18.20;43.60
2749;DHT22;1382;52.142;11.618;2024-03-17T13:18:58;18.20;49.30
2749;DHT22;1382;52.142;11.618;2024-03-17T13:24:40;18.30;45.10
2749;DHT22;1382;52.142;11.618;2024-03-17T13:27:06;18.20;46.40
2749;DHT22;1382;52.142;11.618;2024-03-17T13:29:42;18.30;49.60
2749;DHT22;1382;52.142;11.618;2024-03-17T13:32:08;18.30;47.20
2749;DHT22;1382;52.142;11.618;2024-03-17T13:34:57;18.30;42.90
2749;DHT22;1382;52.142;11.618;2024-03-17T13:40:27;18.40;45.50
2749;DHT22;1382;52.142;11.618;2024-03-17T13:43:10;18.20;43.80
2749;DHT22;1382;52.142;11.618;2024-03-17T13:45:59;18.20;37.70
2749;DHT22;1382;52.142;11.618;2024-03-17T13:48:33;18.10;38.90
2749;DHT22;1382;52.142;11.618;2024-03-17T13:51:02;17.90;40.90
2749;DHT22;1382;52.142;11.618;2024-03-17T13:53:31;17.90;41.00
2749;DHT22;1382;52.142;11.618;2024-03-17T13:56:07;17.90;41.60
2749;DHT22;1382;52.142;11.618;2024-03-17T13:58:36;18.00;41.70
2749;DHT22;1382;52.142;11.618;2024-03-17T14:01:16;18.10;42.60
2749;DHT22;1382;52.142;11.618;2024-03-17T14:04:13;18.10;45.50
2749;DHT22;1382;52.142;11.618;2024-03-17T14:07:14;18.30;44.60
2749;DHT22;1382;52.142;11.618;2024-03-17T14:09:46;18.30;47.00
2749;DHT22;1382;52.142;11.618;2024-03-17T14:12:15;18.30;46.70
2749;DHT22;1382;52.142;11.618;2024-03-17T14:14:52;18.50;45.00
2749;DHT22;1382;52.142;11.618;2024-03-17T14:17:47;18.50;43.20
2749;DHT22;1382;52.142;11.618;2024-03-17T14:20:16;18.70;44.50
2749;DHT22;1382;52.142;11.618;2024-03-17T14:23:00;18.70;43.40
2749;DHT22;1382;52.142;11.618;2024-03-17T14:25:32;18.70;42.00
2749;DHT22;1382;52.142;11.618;2024-03-17T14:34:47;18.80;43.40
2749;DHT22;1382;52.142;11.618;2024-03-17T14:37:40;18.80;42.00
2749;DHT22;1382;52.142;11.618;2024-03-17T14:43:53;18.70;40.10
2749;DHT22;1382;52.142;11.618;2024-03-17T14:46:27;18.90;41.50
2749;DHT22;1382;52.142;11.618;2024-03-17T14:51:48;18.80;43.90
2749;DHT22;1382;52.142;11.618;2024-03-17T14:54:17;18.90;45.60
2749;DHT22;1382;52.142;11.618;2024-03-17T15:00:13;19.00;43.80
2749;DHT22;1382;52.142;11.618;2024-03-17T15:03:00;19.20;41.50
2749;DHT22;1382;52.142;11.618;2024-03-17T15:05:36;19.30;43.00
2749;DHT22;1382;52.142;11.618;2024-03-17T15:08:20;19.30;41.90
2749;DHT22;1382;52.142;11.618;2024-03-17T15:11:09;19.20;45.10
2749;DHT22;1382;52.142;11.618;2024-03-17T15:14:03;19.40;43.90
2749;DHT22;1382;52.142;11.618;2024-03-17T15:16:48;19.50;42.60
2749;DHT22;1382;52.142;11.618;2024-03-17T15:19:34;19.50;43.50
2749;DHT22;1382;52.142;11.618;2024-03-17T15:24:57;19.60;44.00
2749;DHT22;1382;52.142;11.618;2024-03-17T15:27:36;19.60;43.10
2749;DHT22;1382;52.142;11.618;2024-03-17T15:30:30;19.60;42.60
2749;DHT22;1382;52.142;11.618;2024-03-17T15:33:21;19.70;42.70
2749;DHT22;1382;52.142;11.618;2024-03-17T15:36:29;19.90;42.60
2749;DHT22;1382;52.142;11.618;2024-03-17T15:39:33;19.80;41.70
2749;DHT22;1382;52.142;11.618;2024-03-17T15:41:59;19.60;43.50
2749;DHT22;1382;52.142;11.618;2024-03-17T15:44:31;19.70;41.00
2749;DHT22;1382;52.142;11.618;2024-03-17T15:50:04;19.80;42.00
2749;DHT22;1382;52.142;11.618;2024-03-17T15:56:28;19.50;40.80
2749;DHT22;1382;52.142;11.618;2024-03-17T15:59:27;19.50;39.60
2749;DHT22;1382;52.142;11.618;2024-03-17T16:08:48;19.40;41.10
2749;DHT22;1382;52.142;11.618;2024-03-17T16:11:56;19.40;40.10
2749;DHT22;1382;52.142;11.618;2024-03-17T16:14:58;19.40;41.40
2749;DHT22;1382;52.142;11.618;2024-03-17T16:22:18;19.20;41.00
2749;DHT22;1382;52.142;11.618;2024-03-17T16:27:14;19.00;42.30
2749;DHT22;1382;52.142;11.618;2024-03-17T16:30:13;18.90;41.60
2749;DHT22;1382;52.142;11.618;2024-03-17T16:32:53;18.90;43.50
2749;DHT22;1382;52.142;11.618;2024-03-17T16:38:55;18.90;43.20
2749;DHT22;1382;52.142;11.618;2024-03-17T16:58:14;17.90;43.80
2749;DHT22;1382;52.142;11.618;2024-03-17T17:04:39;17.70;43.50
2749;DHT22;1382;52.142;11.618;2024-03-17T17:07:21;17.70;44.40
2749;DHT22;1382;52.142;11.618;2024-03-17T17:09:47;17.60;44.80
2749;DHT22;1382;52.142;11.618;2024-03-17T17:12:14;17.40;44.60
2749;DHT22;1382;52.142;11.618;2024-03-17T17:15:10;17.40;44.50
2749;DHT22;1382;52.142;11.618;2024-03-17T17:21:10;17.00;43.90
2749;DHT22;1382;52.142;11.618;2024-03-17T17:23:43;16.80;44.30
2749;DHT22;1382;52.142;11.618;2024-03-17T17:26:18;16.70;44.50
2749;DHT22;1382;52.142;11.618;2024-03-17T17:28:53;16.70;44.60
2749;DHT22;1382;52.142;11.618;2024-03-17T17:31:21;16.50;44.60
2749;DHT22;1382;52.142;11.618;2024-03-17T17:34:06;16.40;44.80
2749;DHT22;1382;52.142;11.618;2024-03-17T17:36:40;16.20;44.50
2749;DHT22;1382;52.142;11.618;2024-03-17T17:39:17;16.10;44.90
2749;DHT22;1382;52.142;11.618;2024-03-17T17:42:00;16.00;44.80
2749;DHT22;1382;52.142;11.618;2024-03-17T17:47:41;16.10;44.80
2749;DHT22;1382;52.142;11.618;2024-03-17T17:48:16;15.80;45.10
2749;DHT22;1382;52.142;11.618;2024-03-17T17:51:02;15.60;45.60
2749;DHT22;1382;52.142;11.618;2024-03-17T17:53:33;15.60;46.00
2749;DHT22;1382;52.142;11.618;2024-03-17T17:56:11;15.40;45.90
2749;DHT22;1382;52.142;11.618;2024-03-17T17:58:41;15.20;45.40
2749;DHT22;1382;52.142;11.618;2024-03-17T18:01:17;15.20;45.90
2749;DHT22;1382;52.142;11.618;2024-03-17T18:07:43;15.10;45.80
2749;DHT22;1382;52.142;11.618;2024-03-17T18:13:43;14.70;46.00
2749;DHT22;1382;52.142;11.618;2024-03-17T18:16:41;14.80;46.60
2749;DHT22;1382;52.142;11.618;2024-03-17T18:19:09;14.60;46.30
2749;DHT22;1382;52.142;11.618;2024-03-17T18:22:00;14.60;46.70
2749;DHT22;1382;52.142;11.618;2024-03-17T18:24:59;14.60;46.70
2749;DHT22;1382;52.142;11.618;2024-03-17T18:27:29;14.50;46.80
2749;DHT22;1382;52.142;11.618;2024-03-17T18:29:57;14.50;47.10
2749;DHT22;1382;52.142;11.618;2024-03-17T18:32:23;14.50;47.40
2749;DHT22;1382;52.142;11.618;2024-03-17T18:34:51;14.30;47.30
2749;DHT22;1382;52.142;11.618;2024-03-17T18:37:17;14.20;47.30
2749;DHT22;1382;52.142;11.618;2024-03-17T18:39:43;14.20;47.40
2749;DHT22;1382;52.142;11.618;2024-03-17T18:42:09;14.10;47.40
2749;DHT22;1382;52.142;11.618;2024-03-17T18:44:35;14.10;47.60
2749;DHT22;1382;52.142;11.618;2024-03-17T18:47:01;14.00;47.60
2749;DHT22;1382;52.142;11.618;2024-03-17T18:49:34;13.90;47.60
2749;DHT22;1382;52.142;11.618;2024-03-17T18:52:05;13.90;47.60
2749;DHT22;1382;52.142;11.618;2024-03-17T18:54:40;13.90;47.70
2749;DHT22;1382;52.142;11.618;2024-03-17T18:57:06;13.80;47.60
2749;DHT22;1382;52.142;11.618;2024-03-17T18:59:32;13.70;48.00
2749;DHT22;1382;52.142;11.618;2024-03-17T19:01:58;13.70;48.00
2749;DHT22;1382;52.142;11.618;2024-03-17T19:04:26;13.60;48.70
2749;DHT22;1382;52.142;11.618;2024-03-17T19:06:52;13.60;48.00
2749;DHT22;1382;52.142;11.618;2024-03-17T19:09:19;13.50;48.20
2749;DHT22;1382;52.142;11.618;2024-03-17T19:11:45;13.50;48.20
2749;DHT22;1382;52.142;11.618;2024-03-17T19:14:11;13.40;48.00
2749;DHT22;1382;52.142;11.618;2024-03-17T19:16:43;13.40;48.00
2749;DHT22;1382;52.142;11.618;2024-03-17T19:19:09;13.30;47.80
2749;DHT22;1382;52.142;11.618;2024-03-17T19:21:35;13.30;48.20
2749;DHT22;1382;52.142;11.618;2024-03-17T19:24:01;13.20;48.30
2749;DHT22;1382;52.142;11.618;2024-03-17T19:26:28;13.20;48.30
2749;DHT22;1382;52.142;11.618;2024-03-17T19:28:54;13.10;48.30
2749;DHT22;1382;52.142;11.618;2024-03-17T19:31:20;13.10;48.40
2749;DHT22;1382;52.142;11.618;2024-03-17T19:33:47;13.00;48.40
2749;DHT22;1382;52.142;11.618;2024-03-17T19:36:14;13.00;48.40
2749;DHT22;1382;52.142;11.618;2024-03-17T19:38:40;12.90;48.50
2749;DHT22;1382;52.142;11.618;2024-03-17T19:41:07;12.90;48.60
2749;DHT22;1382;52.142;11.618;2024-03-17T19:43:35;12.80;48.70
2749;DHT22;1382;52.142;11.618;2024-03-17T19:46:24;12.80;48.80
2749;DHT22;1382;52.142;11.618;2024-03-17T19:49:15;12.90;48.70
2749;DHT22;1382;52.142;11.618;2024-03-17T19:51:41;12.70;48.60
2749;DHT22;1382;52.142;11.618;2024-03-17T19:54:35;12.60;48.70
2749;DHT22;1382;52.142;11.618;2024-03-17T19:57:21;12.70;48.60
2749;DHT22;1382;52.142;11.618;2024-03-17T20:03:47;12.40;48.50
2749;DHT22;1382;52.142;11.618;2024-03-17T20:06:29;12.30;48.60